Metar Cercanos

 

LEPA - Palma De Mallorc, Spain
Distance from station: ONO 38km
Actualización: Thu, 06-Oct-2022 3:30am CEST
Few Clouds
Few Clouds
 Viento del NNE
Viento: NNE 7 km/h
Temperatura: 18°C
Rocío: 16°C
Humedad: 88%
Barómetro: 1024 hPa
Clouds: Few Clouds
Visibility: 10 km
Cloud details: Few Clouds 914 m
2022/10/06 01:30 LEPA 060130Z 03004KT 9999 FEW030 18/16 Q1024 NOSIG
LEMH - Mahon/Menorca Is, Spain
Distance from station: ENE 105km
Actualización: Thu, 06-Oct-2022 3:30am CEST
Despejado
Despejado
 Viento del ENE
Viento: ENE 6 km/h
Temperatura: 19°C
Rocío: 17°C
Humedad: 88%
Barómetro: 1025 hPa
Resumen: Despejado
Visibility: greater than 10 km
2022/10/06 01:30 LEMH 060130Z AUTO 06003KT CAVOK 19/17 Q1025
 
LEIB - Ibiza/Es Codola, Spain
Distance from station: OSO 165km
Actualización: Thu, 06-Oct-2022 3:30am CEST
Few Clouds
Few Clouds
 Viento del N
Viento: N 6 km/h
Temperatura: 19°C
Rocío: 17°C
Humedad: 88%
Barómetro: 1024 hPa
Clouds: Few Clouds
Visibility: 10 km
Cloud details: Few Clouds 762 m
2022/10/06 01:30 LEIB 060130Z 36003KT 9999 FEW025 19/17 Q1024 NOSIG
LEBL - Barcelona Airpor, Spain
Distance from station: NNO 225km
Actualización: Thu, 06-Oct-2022 3:30am CEST
Parcialmente nuboso
Parcialmente nuboso
 Viento del NNO
Viento: NNO 9 km/h
Temperatura: 19°C
Rocío: 15°C
Humedad: 78%
Barómetro: 1025 hPa
Clouds: Parcialmente nuboso
Visibility: 10 km
Cloud details: Parcialmente nuboso 518 m
2022/10/06 01:30 LEBL 060130Z 33005KT 9999 SCT017 19/15 Q1025 NOSIG
 
LEVC - Valencia (civ/Mi, Spain
Distance from station: NO 188km
Actualización: Thu, 06-Oct-2022 3:30am CEST
Despejado
Despejado
 Viento del NNO
Viento: NNO 11 km/h
Temperatura: 19°C
Rocío: 16°C
Humedad: 83%
Barómetro: 1025 hPa
Resumen: Despejado
Visibility: greater than 10 km
2022/10/06 01:30 LEVC 060130Z 34006KT CAVOK 19/16 Q1025 NOSIG
LEGE - Gerona/Costa Bra, Spain
Distance from station: N 276km
Actualización: Thu, 06-Oct-2022 3:30am CEST
Muy nuboso
Muy nuboso
 Viento del varies
Viento: varies 6 km/h
Temperatura: 17°C
Rocío: 16°C
Humedad: 94%
Barómetro: 1026 hPa
Clouds: Muy nuboso
Visibility: 10 km
Cloud details: Few Clouds 305 m
Muy nuboso 457 m
2022/10/06 01:30 LEGE 060130Z VRB03KT 9999 FEW010 BKN015 17/16 Q1026
 
LEAL - Alicante/El Alte, Spain
Distance from station: OSO 344km
Actualización: Thu, 06-Oct-2022 3:30am CEST
Nearby thunderstorm, Few clouds
Nearby thunderstorm, Few clouds
 Viento del calm
Viento: Calma
Temperatura: 20°C
Rocío: 17°C
Humedad: 83%
Barómetro: 1024 hPa
Resumen: Nearby Thunderstorm
Clouds: Few Clouds
Visibility: 10 km
Cloud details: Few Clouds 762 m
2022/10/06 01:30 LEAL 060130Z 00000KT 9999 VCTS FEW025CB 20/17 Q1024 TEMPO 3000 SHRA
LEAM - Almeria Airport, Spain
Distance from station: SSO 56km
Actualización: Thu, 06-Oct-2022 3:30am CEST
Despejado
Despejado
 Viento del N
Viento: N 9 km/h
Temperatura: 22°C
Rocío: 17°C
Humedad: 73%
Barómetro: 1023 hPa
Resumen: Despejado
Visibility: greater than 10 km
2022/10/06 01:30 LEAM 060130Z AUTO 35005KT 310V050 CAVOK 22/17 Q1023
 
LEZG - Zaragoza (mil/Ci, Spain
Distance from station: NO 431km
Actualización: Thu, 06-Oct-2022 3:30am CEST
Few Clouds
Few Clouds
 Viento del OSO
Viento: OSO 11 km/h
Temperatura: 17°C
Rocío: 12°C
Humedad: 73%
Barómetro: 1027 hPa
Clouds: Few Clouds
Visibility: 10 km
Cloud details: Few Clouds 1219 m
2022/10/06 01:30 LEZG 060130Z 25006KT 220V290 9999 FEW040 17/12 Q1027
LEMD - Madrid/Barajas, Spain
Distance from station: ONO 234km
Actualización: Thu, 06-Oct-2022 3:30am CEST
Despejado
Despejado
 Viento del ENE
Viento: ENE 4 km/h
Temperatura: 18°C
Rocío: 12°C
Humedad: 68%
Barómetro: 1026 hPa
Resumen: Despejado
Visibility: greater than 10 km
2022/10/06 01:30 LEMD 060130Z 07002KT CAVOK 18/12 Q1026 NOSIG
 
LEGR - Granada Airport, Spain
Distance from station: OSO 62km
Actualización: Thu, 06-Oct-2022 3:30am CEST
Despejado
Despejado
 Viento del calm
Viento: Calma
Temperatura: 17°C
Rocío: 14°C
Humedad: 83%
Barómetro: 1025 hPa
Resumen: Despejado
Visibility: greater than 10 km
2022/10/06 01:30 LEGR 060130Z AUTO 00000KT CAVOK 17/14 Q1025
LEMG - Malaga (civ/Mil), Spain
Distance from station: OSO 227km
Actualización: Thu, 06-Oct-2022 3:30am CEST
Few Clouds
Few Clouds
 Viento del O
Viento: O 13 km/h
Temperatura: 19°C
Rocío: 17°C
Humedad: 88%
Barómetro: 1023 hPa
Clouds: Few Clouds
Visibility: 10 km
Cloud details: Few Clouds 610 m
2022/10/06 01:30 LEMG 060130Z 28007KT 9999 FEW020 19/17 Q1023 NOSIG
 
LEZL - Sevilla (civ/Mil, Spain
Distance from station: S 318km
Actualización: Thu, 06-Oct-2022 3:30am CEST
Despejado
Despejado
 Viento del S
Viento: S 9 km/h
Temperatura: 22°C
Rocío: 14°C
Humedad: 61%
Barómetro: 1021 hPa
Resumen: Despejado
Visibility: greater than 10 km
2022/10/06 01:30 LEZL 060130Z AUTO 19005KT CAVOK 22/14 Q1021
LEVT - Vitoria, Spain
Distance from station: NO 226km
Actualización: Thu, 06-Oct-2022 3:30am CEST
Few Clouds
Few Clouds
 Viento del calm
Viento: Calma
Temperatura: 13°C
Rocío: 11°C
Humedad: 88%
Barómetro: 1030 hPa
Clouds: Few Clouds
Visibility: 10 km
Cloud details: Few Clouds 914 m
2022/10/06 01:30 LEVT 060130Z 00000KT 9999 FEW030 13/11 Q1030
 
LEBB - Bilbao/Sondica, Spain
Distance from station: NNO 235km
Actualización: Thu, 06-Oct-2022 3:30am CEST
Cubierto
Cubierto
 Viento del calm
Viento: Calma
Temperatura: 17°C
Rocío: 16°C
Humedad: 94%
Barómetro: 1029 hPa
Clouds: Cubierto
Visibility: 10 km
Cloud details: Parcialmente nuboso 1006 m
Muy nuboso 1189 m
Cubierto 1524 m
2022/10/06 01:30 LEBB 060130Z AUTO 00000KT 9999 SCT033 BKN039 OVC050 17/16 Q1029
LESO - San Sebastian/Fu, Spain
Distance from station: N 231km
Actualización: Thu, 06-Oct-2022 3:30am CEST
Cubierto
Cubierto
 Viento del varies
Viento: varies 2 km/h
Temperatura: 18°C
Rocío: 16°C
Humedad: 88%
Barómetro: 1029 hPa
Clouds: Cubierto
Visibility: 10 km
Cloud details: Cubierto 1128 m
2022/10/06 01:30 LESO 060130Z AUTO VRB01KT 9999 OVC037 18/16 Q1029
 
LEVD - Valladolid(Mil/C, Spain
Distance from station: ONO 239km
Actualización: Thu, 06-Oct-2022 3:30am CEST
Parcialmente nuboso
Parcialmente nuboso
 Viento del ENE
Viento: ENE 28 km/h
Temperatura: 13°C
Rocío: 9°C
Humedad: 77%
Barómetro: 1027 hPa
Clouds: Parcialmente nuboso
Visibility: 10 km
Cloud details: Parcialmente nuboso 1219 m
2022/10/06 01:30 LEVD 060130Z AUTO 06015KT 9999 SCT040 13/09 Q1027
LESA - Salamanca (civ/M, Spain
Distance from station: ONO 349km
Actualización: Thu, 06-Oct-2022 3:30am CEST
Despejado
Despejado
 Viento del calm
Viento: Calma
Temperatura: 9°C
Rocío: 6°C
Humedad: 82%
Barómetro: 1026 hPa
Clouds: Despejado
Visibility: 6 km
2022/10/06 01:30 LESA 060130Z AUTO 00000KT 6000 NCD 09/06 Q1026
 
LEXJ - Santander/Paraya, Spain
Distance from station: NNO 247km
Actualización: Thu, 06-Oct-2022 3:30am CEST
Cubierto
Cubierto
 Viento del SSO
Viento: SSO 6 km/h
Temperatura: 18°C
Rocío: 15°C
Humedad: 83%
Barómetro: 1029 hPa
Clouds: Cubierto
Visibility: 8 km
Cloud details: Cubierto 640 m
2022/10/06 01:30 LEXJ 060130Z AUTO 20003KT 170V230 8000 OVC021 18/15 Q1029
LEAS - Asturias/Aviles, Spain
Distance from station: NO 214km
Actualización: Thu, 06-Oct-2022 3:30am CEST
Lluvia débil, Mist, Cubierto
Lluvia débil, Mist, Cubierto
 Viento del NE
Viento: NE 15 km/h
Temperatura: 15°C
Rocío: 15°C
Humedad: 100%
Barómetro: 1029 hPa
Resumen: Lluvia débil, Mist
Clouds: Cubierto
Visibility: 2 km
Cloud details: Cubierto 61 m
2022/10/06 01:30 LEAS 060130Z AUTO 05008KT 350V100 2000 -RA BR OVC002 15/15 Q1029
 
LECO - La Coruna/Alvedr, Spain
Distance from station: ONO 222km
Actualización: Thu, 06-Oct-2022 3:30am CEST
Cubierto
Cubierto
 Viento del N
Viento: N 9 km/h
Temperatura: 17°C
Rocío: 14°C
Humedad: 83%
Barómetro: 1028 hPa
Clouds: Cubierto
Visibility: 10 km
Cloud details: Cubierto 701 m
2022/10/06 01:30 LECO 060130Z AUTO 36005KT 310V050 9999 OVC023 17/14 Q1028
LEVX - Vigo/Peinador, Spain
Distance from station: O 214km
Actualización: Thu, 06-Oct-2022 3:30am CEST
Despejado
Despejado
 Viento del varies
Viento: varies 4 km/h
Temperatura: 16°C
Rocío: 14°C
Humedad: 88%
Barómetro: 1025 hPa
Resumen: Despejado
Visibility: greater than 10 km
2022/10/06 01:30 LEVX 060130Z VRB02KT CAVOK 16/14 Q1025 NOSIG